sensor_id;sensor_type;location;lat;lon;timestamp;P1;durP1;ratioP1;P2;durP2;ratioP2
4694;SDS011;2361;49.540;8.390;2024-01-06T00:00:18;2.28;;;1.40;;
4694;SDS011;2361;49.540;8.390;2024-01-06T00:02:42;1.92;;;1.70;;
4694;SDS011;2361;49.540;8.390;2024-01-06T00:05:04;2.08;;;1.67;;
4694;SDS011;2361;49.540;8.390;2024-01-06T00:07:27;3.00;;;1.70;;
4694;SDS011;2361;49.540;8.390;2024-01-06T00:09:49;1.70;;;1.60;;
4694;SDS011;2361;49.540;8.390;2024-01-06T00:12:11;2.33;;;2.00;;
4694;SDS011;2361;49.540;8.390;2024-01-06T00:14:33;2.00;;;1.80;;
4694;SDS011;2361;49.540;8.390;2024-01-06T00:16:55;3.10;;;1.90;;
4694;SDS011;2361;49.540;8.390;2024-01-06T00:19:17;2.13;;;1.60;;
4694;SDS011;2361;49.540;8.390;2024-01-06T00:21:39;2.10;;;1.90;;
4694;SDS011;2361;49.540;8.390;2024-01-06T00:24:01;2.67;;;2.20;;
4694;SDS011;2361;49.540;8.390;2024-01-06T00:26:23;2.85;;;2.05;;
4694;SDS011;2361;49.540;8.390;2024-01-06T00:28:48;2.72;;;2.00;;
4694;SDS011;2361;49.540;8.390;2024-01-06T00:31:10;4.55;;;2.50;;
4694;SDS011;2361;49.540;8.390;2024-01-06T00:33:32;2.80;;;2.40;;
4694;SDS011;2361;49.540;8.390;2024-01-06T00:35:54;2.60;;;2.40;;
4694;SDS011;2361;49.540;8.390;2024-01-06T00:38:17;3.45;;;2.20;;
4694;SDS011;2361;49.540;8.390;2024-01-06T00:40:39;3.45;;;2.67;;
4694;SDS011;2361;49.540;8.390;2024-01-06T00:43:01;3.33;;;2.47;;
4694;SDS011;2361;49.540;8.390;2024-01-06T00:45:23;3.60;;;2.20;;
4694;SDS011;2361;49.540;8.390;2024-01-06T00:47:45;3.92;;;2.40;;
4694;SDS011;2361;49.540;8.390;2024-01-06T00:50:07;2.90;;;2.60;;
4694;SDS011;2361;49.540;8.390;2024-01-06T00:52:29;2.72;;;2.53;;
4694;SDS011;2361;49.540;8.390;2024-01-06T00:54:51;3.40;;;2.40;;
4694;SDS011;2361;49.540;8.390;2024-01-06T00:57:13;4.55;;;2.50;;
4694;SDS011;2361;49.540;8.390;2024-01-06T00:59:35;3.00;;;2.50;;
4694;SDS011;2361;49.540;8.390;2024-01-06T01:01:57;2.40;;;2.20;;
4694;SDS011;2361;49.540;8.390;2024-01-06T01:04:19;2.80;;;2.30;;
4694;SDS011;2361;49.540;8.390;2024-01-06T01:06:41;2.60;;;2.40;;
4694;SDS011;2361;49.540;8.390;2024-01-06T01:09:03;4.45;;;2.20;;
4694;SDS011;2361;49.540;8.390;2024-01-06T01:11:25;3.60;;;2.47;;
4694;SDS011;2361;49.540;8.390;2024-01-06T01:13:47;3.92;;;2.30;;
4694;SDS011;2361;49.540;8.390;2024-01-06T01:16:09;13.52;;;5.18;;
4694;SDS011;2361;49.540;8.390;2024-01-06T01:18:31;2.72;;;1.77;;
4694;SDS011;2361;49.540;8.390;2024-01-06T01:20:53;1.92;;;1.70;;
4694;SDS011;2361;49.540;8.390;2024-01-06T01:23:15;2.22;;;1.80;;
4694;SDS011;2361;49.540;8.390;2024-01-06T01:25:37;2.60;;;1.90;;
4694;SDS011;2361;49.540;8.390;2024-01-06T01:27:59;3.20;;;1.90;;
4694;SDS011;2361;49.540;8.390;2024-01-06T01:30:21;2.50;;;1.85;;
4694;SDS011;2361;49.540;8.390;2024-01-06T01:32:44;2.30;;;1.88;;
4694;SDS011;2361;49.540;8.390;2024-01-06T01:35:06;2.83;;;1.90;;
4694;SDS011;2361;49.540;8.390;2024-01-06T01:37:28;3.33;;;1.73;;
4694;SDS011;2361;49.540;8.390;2024-01-06T01:39:50;2.00;;;1.63;;
4694;SDS011;2361;49.540;8.390;2024-01-06T01:42:12;2.53;;;1.60;;
4694;SDS011;2361;49.540;8.390;2024-01-06T01:44:34;2.70;;;1.70;;
4694;SDS011;2361;49.540;8.390;2024-01-06T01:46:56;2.85;;;1.80;;
4694;SDS011;2361;49.540;8.390;2024-01-06T01:49:18;2.35;;;1.70;;
4694;SDS011;2361;49.540;8.390;2024-01-06T01:51:40;1.60;;;1.50;;
4694;SDS011;2361;49.540;8.390;2024-01-06T01:54:05;2.95;;;1.70;;
4694;SDS011;2361;49.540;8.390;2024-01-06T01:56:29;2.45;;;1.80;;
4694;SDS011;2361;49.540;8.390;2024-01-06T01:58:55;1.73;;;1.63;;
4694;SDS011;2361;49.540;8.390;2024-01-06T02:01:17;2.15;;;1.50;;
4694;SDS011;2361;49.540;8.390;2024-01-06T02:03:41;3.90;;;1.60;;
4694;SDS011;2361;49.540;8.390;2024-01-06T02:06:05;1.70;;;1.50;;
4694;SDS011;2361;49.540;8.390;2024-01-06T02:08:27;4.60;;;1.80;;
4694;SDS011;2361;49.540;8.390;2024-01-06T02:10:49;2.37;;;1.60;;
4694;SDS011;2361;49.540;8.390;2024-01-06T02:13:12;2.90;;;1.60;;
4694;SDS011;2361;49.540;8.390;2024-01-06T02:15:34;1.60;;;1.50;;
4694;SDS011;2361;49.540;8.390;2024-01-06T02:17:56;1.60;;;1.50;;
4694;SDS011;2361;49.540;8.390;2024-01-06T02:20:18;1.80;;;1.60;;
4694;SDS011;2361;49.540;8.390;2024-01-06T02:22:41;1.85;;;1.40;;
4694;SDS011;2361;49.540;8.390;2024-01-06T02:25:06;2.33;;;1.60;;
4694;SDS011;2361;49.540;8.390;2024-01-06T02:27:33;1.83;;;1.50;;
4694;SDS011;2361;49.540;8.390;2024-01-06T02:29:55;2.78;;;1.80;;
4694;SDS011;2361;49.540;8.390;2024-01-06T02:32:17;2.90;;;1.55;;
4694;SDS011;2361;49.540;8.390;2024-01-06T02:34:39;2.13;;;1.80;;
4694;SDS011;2361;49.540;8.390;2024-01-06T02:37:01;2.42;;;1.92;;
4694;SDS011;2361;49.540;8.390;2024-01-06T02:39:23;2.33;;;1.77;;
4694;SDS011;2361;49.540;8.390;2024-01-06T02:41:45;1.75;;;1.60;;
4694;SDS011;2361;49.540;8.390;2024-01-06T02:44:07;1.77;;;1.50;;
4694;SDS011;2361;49.540;8.390;2024-01-06T02:46:33;2.05;;;1.63;;
4694;SDS011;2361;49.540;8.390;2024-01-06T02:48:55;1.70;;;1.60;;
4694;SDS011;2361;49.540;8.390;2024-01-06T02:51:17;2.13;;;1.50;;
4694;SDS011;2361;49.540;8.390;2024-01-06T02:53:39;1.60;;;1.50;;
4694;SDS011;2361;49.540;8.390;2024-01-06T02:56:01;4.70;;;1.70;;
4694;SDS011;2361;49.540;8.390;2024-01-06T02:58:23;4.00;;;1.60;;
4694;SDS011;2361;49.540;8.390;2024-01-06T03:00:45;2.30;;;1.53;;
4694;SDS011;2361;49.540;8.390;2024-01-06T03:03:07;2.20;;;1.20;;
4694;SDS011;2361;49.540;8.390;2024-01-06T03:05:29;1.40;;;1.30;;
4694;SDS011;2361;49.540;8.390;2024-01-06T03:07:52;1.40;;;1.30;;
4694;SDS011;2361;49.540;8.390;2024-01-06T03:10:14;1.65;;;1.50;;
4694;SDS011;2361;49.540;8.390;2024-01-06T03:12:36;4.13;;;1.40;;
4694;SDS011;2361;49.540;8.390;2024-01-06T03:14:58;4.32;;;1.40;;
4694;SDS011;2361;49.540;8.390;2024-01-06T03:17:20;2.20;;;1.40;;
4694;SDS011;2361;49.540;8.390;2024-01-06T03:19:43;2.10;;;1.30;;
4694;SDS011;2361;49.540;8.390;2024-01-06T03:22:06;1.40;;;1.30;;
4694;SDS011;2361;49.540;8.390;2024-01-06T03:24:28;2.00;;;1.40;;
4694;SDS011;2361;49.540;8.390;2024-01-06T03:26:50;1.20;;;1.10;;
4694;SDS011;2361;49.540;8.390;2024-01-06T03:29:12;1.70;;;1.50;;
4694;SDS011;2361;49.540;8.390;2024-01-06T03:31:34;1.80;;;1.70;;
4694;SDS011;2361;49.540;8.390;2024-01-06T03:33:58;2.80;;;2.30;;
4694;SDS011;2361;49.540;8.390;2024-01-06T03:36:20;2.10;;;2.00;;
4694;SDS011;2361;49.540;8.390;2024-01-06T03:38:42;2.17;;;1.98;;
4694;SDS011;2361;49.540;8.390;2024-01-06T03:41:04;3.55;;;1.70;;
4694;SDS011;2361;49.540;8.390;2024-01-06T03:43:26;2.30;;;1.80;;
4694;SDS011;2361;49.540;8.390;2024-01-06T03:45:47;2.50;;;1.70;;
4694;SDS011;2361;49.540;8.390;2024-01-06T03:48:09;2.20;;;1.50;;
4694;SDS011;2361;49.540;8.390;2024-01-06T03:50:32;2.90;;;1.40;;
4694;SDS011;2361;49.540;8.390;2024-01-06T03:52:53;1.70;;;1.60;;
4694;SDS011;2361;49.540;8.390;2024-01-06T03:55:15;2.38;;;1.60;;
4694;SDS011;2361;49.540;8.390;2024-01-06T03:57:37;1.80;;;1.70;;
4694;SDS011;2361;49.540;8.390;2024-01-06T03:59:59;1.70;;;1.60;;
4694;SDS011;2361;49.540;8.390;2024-01-06T04:02:21;3.85;;;1.70;;
4694;SDS011;2361;49.540;8.390;2024-01-06T04:04:43;2.80;;;1.60;;
4694;SDS011;2361;49.540;8.390;2024-01-06T04:07:05;1.88;;;1.70;;
4694;SDS011;2361;49.540;8.390;2024-01-06T04:09:28;1.77;;;1.52;;
4694;SDS011;2361;49.540;8.390;2024-01-06T04:11:50;1.75;;;1.65;;
4694;SDS011;2361;49.540;8.390;2024-01-06T04:14:12;2.10;;;1.80;;
4694;SDS011;2361;49.540;8.390;2024-01-06T04:16:34;1.42;;;1.33;;
4694;SDS011;2361;49.540;8.390;2024-01-06T04:18:56;2.85;;;1.70;;
4694;SDS011;2361;49.540;8.390;2024-01-06T04:21:18;1.80;;;1.70;;
4694;SDS011;2361;49.540;8.390;2024-01-06T04:23:40;4.10;;;2.00;;
4694;SDS011;2361;49.540;8.390;2024-01-06T04:26:02;3.08;;;1.73;;
4694;SDS011;2361;49.540;8.390;2024-01-06T04:28:25;2.78;;;1.60;;
4694;SDS011;2361;49.540;8.390;2024-01-06T04:30:47;3.40;;;1.77;;
4694;SDS011;2361;49.540;8.390;2024-01-06T04:33:10;2.50;;;1.60;;
4694;SDS011;2361;49.540;8.390;2024-01-06T04:35:32;3.30;;;1.65;;
4694;SDS011;2361;49.540;8.390;2024-01-06T04:37:54;2.00;;;1.70;;
4694;SDS011;2361;49.540;8.390;2024-01-06T04:40:16;1.70;;;1.60;;
4694;SDS011;2361;49.540;8.390;2024-01-06T04:42:38;1.70;;;1.60;;
4694;SDS011;2361;49.540;8.390;2024-01-06T04:45:00;1.50;;;1.40;;
4694;SDS011;2361;49.540;8.390;2024-01-06T04:47:22;1.40;;;1.30;;
4694;SDS011;2361;49.540;8.390;2024-01-06T04:49:44;1.52;;;1.40;;
4694;SDS011;2361;49.540;8.390;2024-01-06T04:52:06;3.40;;;1.50;;
4694;SDS011;2361;49.540;8.390;2024-01-06T04:54:28;1.67;;;1.45;;
4694;SDS011;2361;49.540;8.390;2024-01-06T04:56:50;3.00;;;1.40;;
4694;SDS011;2361;49.540;8.390;2024-01-06T04:59:12;1.70;;;1.60;;
4694;SDS011;2361;49.540;8.390;2024-01-06T05:01:34;2.80;;;1.80;;
4694;SDS011;2361;49.540;8.390;2024-01-06T05:03:56;1.73;;;1.60;;
4694;SDS011;2361;49.540;8.390;2024-01-06T05:06:18;1.60;;;1.50;;
4694;SDS011;2361;49.540;8.390;2024-01-06T05:08:40;1.80;;;1.60;;
4694;SDS011;2361;49.540;8.390;2024-01-06T05:11:06;1.80;;;1.40;;
4694;SDS011;2361;49.540;8.390;2024-01-06T05:13:28;2.30;;;1.50;;
4694;SDS011;2361;49.540;8.390;2024-01-06T05:15:49;1.50;;;1.40;;
4694;SDS011;2361;49.540;8.390;2024-01-06T05:18:11;1.63;;;1.52;;
4694;SDS011;2361;49.540;8.390;2024-01-06T05:20:34;1.58;;;1.48;;
4694;SDS011;2361;49.540;8.390;2024-01-06T05:22:56;2.10;;;1.52;;
4694;SDS011;2361;49.540;8.390;2024-01-06T05:25:18;1.63;;;1.53;;
4694;SDS011;2361;49.540;8.390;2024-01-06T05:27:40;1.88;;;1.60;;
4694;SDS011;2361;49.540;8.390;2024-01-06T05:30:02;2.30;;;1.60;;
4694;SDS011;2361;49.540;8.390;2024-01-06T05:32:25;2.05;;;1.85;;
4694;SDS011;2361;49.540;8.390;2024-01-06T05:34:48;1.80;;;1.70;;
4694;SDS011;2361;49.540;8.390;2024-01-06T05:37:10;1.90;;;1.70;;
4694;SDS011;2361;49.540;8.390;2024-01-06T05:39:32;2.90;;;1.60;;
4694;SDS011;2361;49.540;8.390;2024-01-06T05:41:54;1.70;;;1.60;;
4694;SDS011;2361;49.540;8.390;2024-01-06T05:44:16;1.58;;;1.40;;
4694;SDS011;2361;49.540;8.390;2024-01-06T05:46:38;2.38;;;1.80;;
4694;SDS011;2361;49.540;8.390;2024-01-06T05:49:00;1.60;;;1.50;;
4694;SDS011;2361;49.540;8.390;2024-01-06T05:51:22;3.47;;;1.85;;
4694;SDS011;2361;49.540;8.390;2024-01-06T05:53:44;1.83;;;1.70;;
4694;SDS011;2361;49.540;8.390;2024-01-06T05:56:06;2.10;;;1.55;;
4694;SDS011;2361;49.540;8.390;2024-01-06T05:58:30;2.40;;;1.77;;
4694;SDS011;2361;49.540;8.390;2024-01-06T06:00:52;2.25;;;1.80;;
4694;SDS011;2361;49.540;8.390;2024-01-06T06:03:14;2.40;;;1.80;;
4694;SDS011;2361;49.540;8.390;2024-01-06T06:05:36;2.10;;;1.90;;
4694;SDS011;2361;49.540;8.390;2024-01-06T06:07:58;1.70;;;1.60;;
4694;SDS011;2361;49.540;8.390;2024-01-06T06:10:19;2.20;;;2.00;;
4694;SDS011;2361;49.540;8.390;2024-01-06T06:12:42;1.98;;;1.70;;
4694;SDS011;2361;49.540;8.390;2024-01-06T06:15:04;1.80;;;1.70;;
4694;SDS011;2361;49.540;8.390;2024-01-06T06:17:27;2.90;;;1.70;;
4694;SDS011;2361;49.540;8.390;2024-01-06T06:19:49;1.70;;;1.60;;
4694;SDS011;2361;49.540;8.390;2024-01-06T06:22:11;2.47;;;1.58;;
4694;SDS011;2361;49.540;8.390;2024-01-06T06:24:33;1.85;;;1.75;;
4694;SDS011;2361;49.540;8.390;2024-01-06T06:26:55;1.80;;;1.70;;
4694;SDS011;2361;49.540;8.390;2024-01-06T06:29:17;1.67;;;1.58;;
4694;SDS011;2361;49.540;8.390;2024-01-06T06:31:39;2.92;;;1.92;;
4694;SDS011;2361;49.540;8.390;2024-01-06T06:34:01;1.90;;;1.80;;
4694;SDS011;2361;49.540;8.390;2024-01-06T06:36:29;1.70;;;1.50;;
4694;SDS011;2361;49.540;8.390;2024-01-06T06:38:51;2.00;;;1.90;;
4694;SDS011;2361;49.540;8.390;2024-01-06T06:41:12;2.58;;;1.95;;
4694;SDS011;2361;49.540;8.390;2024-01-06T06:43:34;2.40;;;2.10;;
4694;SDS011;2361;49.540;8.390;2024-01-06T06:45:56;2.85;;;2.03;;
4694;SDS011;2361;49.540;8.390;2024-01-06T06:48:18;2.30;;;2.10;;
4694;SDS011;2361;49.540;8.390;2024-01-06T06:50:40;2.75;;;2.28;;
4694;SDS011;2361;49.540;8.390;2024-01-06T06:53:02;3.30;;;2.05;;
4694;SDS011;2361;49.540;8.390;2024-01-06T06:55:24;2.03;;;1.90;;
4694;SDS011;2361;49.540;8.390;2024-01-06T06:57:46;2.42;;;2.22;;
4694;SDS011;2361;49.540;8.390;2024-01-06T07:00:08;2.50;;;2.30;;
4694;SDS011;2361;49.540;8.390;2024-01-06T07:02:31;3.20;;;2.50;;
4694;SDS011;2361;49.540;8.390;2024-01-06T07:04:53;2.28;;;2.10;;
4694;SDS011;2361;49.540;8.390;2024-01-06T07:07:15;3.50;;;1.95;;
4694;SDS011;2361;49.540;8.390;2024-01-06T07:09:36;3.28;;;2.35;;
4694;SDS011;2361;49.540;8.390;2024-01-06T07:11:58;2.30;;;2.20;;
4694;SDS011;2361;49.540;8.390;2024-01-06T07:14:20;3.10;;;2.20;;
4694;SDS011;2361;49.540;8.390;2024-01-06T07:16:42;3.38;;;2.50;;
4694;SDS011;2361;49.540;8.390;2024-01-06T07:19:04;2.58;;;2.38;;
4694;SDS011;2361;49.540;8.390;2024-01-06T07:21:27;2.70;;;2.50;;
4694;SDS011;2361;49.540;8.390;2024-01-06T07:23:49;2.60;;;2.50;;
4694;SDS011;2361;49.540;8.390;2024-01-06T07:26:11;2.50;;;2.30;;
4694;SDS011;2361;49.540;8.390;2024-01-06T07:28:32;2.50;;;2.40;;
4694;SDS011;2361;49.540;8.390;2024-01-06T07:30:54;2.70;;;2.50;;
4694;SDS011;2361;49.540;8.390;2024-01-06T07:33:16;2.92;;;2.30;;
4694;SDS011;2361;49.540;8.390;2024-01-06T07:35:38;2.40;;;2.30;;
4694;SDS011;2361;49.540;8.390;2024-01-06T07:38:04;4.18;;;2.50;;
4694;SDS011;2361;49.540;8.390;2024-01-06T07:40:26;2.63;;;2.40;;
4694;SDS011;2361;49.540;8.390;2024-01-06T07:42:48;2.30;;;2.20;;
4694;SDS011;2361;49.540;8.390;2024-01-06T07:45:10;3.00;;;2.50;;
4694;SDS011;2361;49.540;8.390;2024-01-06T07:47:33;3.25;;;2.60;;
4694;SDS011;2361;49.540;8.390;2024-01-06T07:49:55;3.38;;;2.42;;
4694;SDS011;2361;49.540;8.390;2024-01-06T07:52:18;3.38;;;2.50;;
4694;SDS011;2361;49.540;8.390;2024-01-06T07:54:40;2.60;;;2.40;;
4694;SDS011;2361;49.540;8.390;2024-01-06T07:57:02;2.50;;;2.30;;
4694;SDS011;2361;49.540;8.390;2024-01-06T07:59:24;3.38;;;2.70;;
4694;SDS011;2361;49.540;8.390;2024-01-06T08:01:46;5.30;;;2.70;;
4694;SDS011;2361;49.540;8.390;2024-01-06T08:04:08;2.70;;;2.50;;
4694;SDS011;2361;49.540;8.390;2024-01-06T08:06:31;2.50;;;2.30;;
4694;SDS011;2361;49.540;8.390;2024-01-06T08:08:52;2.90;;;2.63;;
4694;SDS011;2361;49.540;8.390;2024-01-06T08:11:15;3.97;;;2.50;;
4694;SDS011;2361;49.540;8.390;2024-01-06T08:13:37;5.40;;;2.95;;
4694;SDS011;2361;49.540;8.390;2024-01-06T08:15:59;3.50;;;2.30;;
4694;SDS011;2361;49.540;8.390;2024-01-06T08:18:21;2.80;;;2.60;;
4694;SDS011;2361;49.540;8.390;2024-01-06T08:20:44;5.03;;;2.77;;
4694;SDS011;2361;49.540;8.390;2024-01-06T08:23:06;5.00;;;2.80;;
4694;SDS011;2361;49.540;8.390;2024-01-06T08:25:27;2.80;;;2.60;;
4694;SDS011;2361;49.540;8.390;2024-01-06T08:27:49;3.45;;;3.00;;
4694;SDS011;2361;49.540;8.390;2024-01-06T08:30:11;3.65;;;2.90;;
4694;SDS011;2361;49.540;8.390;2024-01-06T08:32:34;3.67;;;3.10;;
4694;SDS011;2361;49.540;8.390;2024-01-06T08:34:56;3.30;;;3.00;;
4694;SDS011;2361;49.540;8.390;2024-01-06T08:37:18;3.97;;;3.10;;
4694;SDS011;2361;49.540;8.390;2024-01-06T08:39:40;3.40;;;3.10;;
4694;SDS011;2361;49.540;8.390;2024-01-06T08:42:02;4.38;;;3.38;;
4694;SDS011;2361;49.540;8.390;2024-01-06T08:44:24;3.42;;;3.13;;
4694;SDS011;2361;49.540;8.390;2024-01-06T08:46:46;4.30;;;3.20;;
4694;SDS011;2361;49.540;8.390;2024-01-06T08:49:08;4.20;;;3.40;;
4694;SDS011;2361;49.540;8.390;2024-01-06T08:51:30;5.88;;;3.70;;
4694;SDS011;2361;49.540;8.390;2024-01-06T08:53:52;5.95;;;4.30;;
4694;SDS011;2361;49.540;8.390;2024-01-06T08:56:14;4.32;;;3.92;;
4694;SDS011;2361;49.540;8.390;2024-01-06T08:58:38;4.10;;;3.00;;
4694;SDS011;2361;49.540;8.390;2024-01-06T09:01:01;3.50;;;3.20;;
4694;SDS011;2361;49.540;8.390;2024-01-06T09:03:23;3.60;;;3.30;;
4694;SDS011;2361;49.540;8.390;2024-01-06T09:05:46;3.45;;;3.15;;
4694;SDS011;2361;49.540;8.390;2024-01-06T09:08:08;3.90;;;3.20;;
4694;SDS011;2361;49.540;8.390;2024-01-06T09:10:30;4.20;;;3.40;;
4694;SDS011;2361;49.540;8.390;2024-01-06T09:12:52;5.05;;;3.08;;
4694;SDS011;2361;49.540;8.390;2024-01-06T09:15:14;3.78;;;3.10;;
4694;SDS011;2361;49.540;8.390;2024-01-06T09:17:36;4.65;;;3.50;;
4694;SDS011;2361;49.540;8.390;2024-01-06T09:19:58;3.95;;;3.20;;
4694;SDS011;2361;49.540;8.390;2024-01-06T09:22:20;4.00;;;3.42;;
4694;SDS011;2361;49.540;8.390;2024-01-06T09:24:41;4.72;;;3.30;;
4694;SDS011;2361;49.540;8.390;2024-01-06T09:27:04;5.43;;;3.38;;
4694;SDS011;2361;49.540;8.390;2024-01-06T09:29:26;3.75;;;3.45;;
4694;SDS011;2361;49.540;8.390;2024-01-06T09:31:48;3.43;;;3.10;;
4694;SDS011;2361;49.540;8.390;2024-01-06T09:34:10;5.00;;;3.30;;
4694;SDS011;2361;49.540;8.390;2024-01-06T09:36:33;4.85;;;3.40;;
4694;SDS011;2361;49.540;8.390;2024-01-06T09:38:55;3.80;;;3.50;;
4694;SDS011;2361;49.540;8.390;2024-01-06T09:41:17;4.50;;;3.50;;
4694;SDS011;2361;49.540;8.390;2024-01-06T09:43:39;4.20;;;3.05;;
4694;SDS011;2361;49.540;8.390;2024-01-06T09:46:06;5.72;;;3.80;;
4694;SDS011;2361;49.540;8.390;2024-01-06T09:48:33;4.55;;;3.40;;
4694;SDS011;2361;49.540;8.390;2024-01-06T09:51:02;4.18;;;3.55;;
4694;SDS011;2361;49.540;8.390;2024-01-06T09:53:26;8.48;;;4.28;;
4694;SDS011;2361;49.540;8.390;2024-01-06T09:55:57;4.17;;;3.77;;
4694;SDS011;2361;49.540;8.390;2024-01-06T09:58:20;5.00;;;3.85;;
4694;SDS011;2361;49.540;8.390;2024-01-06T10:00:42;5.68;;;3.95;;
4694;SDS011;2361;49.540;8.390;2024-01-06T10:03:04;5.03;;;3.80;;
4694;SDS011;2361;49.540;8.390;2024-01-06T10:05:26;5.65;;;4.25;;
4694;SDS011;2361;49.540;8.390;2024-01-06T10:07:50;5.38;;;4.38;;
4694;SDS011;2361;49.540;8.390;2024-01-06T10:10:13;5.13;;;4.10;;
4694;SDS011;2361;49.540;8.390;2024-01-06T10:12:39;7.15;;;4.20;;
4694;SDS011;2361;49.540;8.390;2024-01-06T10:15:03;5.47;;;4.13;;
4694;SDS011;2361;49.540;8.390;2024-01-06T10:17:25;5.40;;;4.30;;
4694;SDS011;2361;49.540;8.390;2024-01-06T10:19:47;6.65;;;4.93;;
4694;SDS011;2361;49.540;8.390;2024-01-06T10:22:10;6.47;;;4.85;;
4694;SDS011;2361;49.540;8.390;2024-01-06T10:24:32;4.82;;;4.13;;
4694;SDS011;2361;49.540;8.390;2024-01-06T10:26:55;6.40;;;4.40;;
4694;SDS011;2361;49.540;8.390;2024-01-06T10:29:17;7.15;;;4.50;;
4694;SDS011;2361;49.540;8.390;2024-01-06T10:31:39;7.88;;;4.40;;
4694;SDS011;2361;49.540;8.390;2024-01-06T10:34:02;6.75;;;4.60;;
4694;SDS011;2361;49.540;8.390;2024-01-06T10:36:25;6.20;;;4.78;;
4694;SDS011;2361;49.540;8.390;2024-01-06T10:38:48;4.90;;;4.30;;
4694;SDS011;2361;49.540;8.390;2024-01-06T10:41:11;5.18;;;4.03;;
4694;SDS011;2361;49.540;8.390;2024-01-06T10:43:34;7.75;;;4.50;;
4694;SDS011;2361;49.540;8.390;2024-01-06T10:45:59;5.35;;;4.15;;
4694;SDS011;2361;49.540;8.390;2024-01-06T10:48:25;5.47;;;4.50;;
4694;SDS011;2361;49.540;8.390;2024-01-06T10:50:48;7.45;;;4.80;;
4694;SDS011;2361;49.540;8.390;2024-01-06T10:53:11;7.30;;;4.40;;
4694;SDS011;2361;49.540;8.390;2024-01-06T10:55:34;4.97;;;4.30;;
4694;SDS011;2361;49.540;8.390;2024-01-06T10:57:58;5.07;;;4.30;;
4694;SDS011;2361;49.540;8.390;2024-01-06T11:00:20;6.00;;;4.55;;
4694;SDS011;2361;49.540;8.390;2024-01-06T11:02:43;5.05;;;4.10;;
4694;SDS011;2361;49.540;8.390;2024-01-06T11:05:07;6.68;;;4.63;;
4694;SDS011;2361;49.540;8.390;2024-01-06T11:07:31;5.60;;;4.18;;
4694;SDS011;2361;49.540;8.390;2024-01-06T11:09:58;6.73;;;4.40;;
4694;SDS011;2361;49.540;8.390;2024-01-06T11:12:24;6.38;;;4.40;;
4694;SDS011;2361;49.540;8.390;2024-01-06T11:14:49;5.88;;;4.40;;
4694;SDS011;2361;49.540;8.390;2024-01-06T11:17:11;5.20;;;4.30;;
4694;SDS011;2361;49.540;8.390;2024-01-06T11:24:51;5.05;;;4.28;;
4694;SDS011;2361;49.540;8.390;2024-01-06T11:27:18;6.15;;;4.30;;
4694;SDS011;2361;49.540;8.390;2024-01-06T11:29:52;5.68;;;4.10;;
4694;SDS011;2361;49.540;8.390;2024-01-06T11:32:18;5.25;;;4.35;;
4694;SDS011;2361;49.540;8.390;2024-01-06T11:34:42;5.72;;;4.35;;
4694;SDS011;2361;49.540;8.390;2024-01-06T11:37:04;5.32;;;4.28;;
4694;SDS011;2361;49.540;8.390;2024-01-06T11:39:34;5.20;;;4.60;;
4694;SDS011;2361;49.540;8.390;2024-01-06T11:42:02;7.00;;;4.60;;
4694;SDS011;2361;49.540;8.390;2024-01-06T11:44:24;5.97;;;4.60;;
4694;SDS011;2361;49.540;8.390;2024-01-06T11:46:49;7.53;;;4.60;;
4694;SDS011;2361;49.540;8.390;2024-01-06T11:49:14;6.40;;;4.80;;
4694;SDS011;2361;49.540;8.390;2024-01-06T11:51:42;7.07;;;4.80;;
4694;SDS011;2361;49.540;8.390;2024-01-06T11:54:04;7.35;;;5.25;;
4694;SDS011;2361;49.540;8.390;2024-01-06T11:56:26;6.00;;;4.90;;
4694;SDS011;2361;49.540;8.390;2024-01-06T11:58:48;7.72;;;4.95;;
4694;SDS011;2361;49.540;8.390;2024-01-06T12:01:10;9.20;;;5.10;;
4694;SDS011;2361;49.540;8.390;2024-01-06T12:03:32;8.00;;;4.90;;
4694;SDS011;2361;49.540;8.390;2024-01-06T12:06:01;7.70;;;5.00;;
4694;SDS011;2361;49.540;8.390;2024-01-06T12:08:24;7.13;;;5.35;;
4694;SDS011;2361;49.540;8.390;2024-01-06T12:10:46;8.40;;;5.38;;
4694;SDS011;2361;49.540;8.390;2024-01-06T12:13:08;8.77;;;5.00;;
4694;SDS011;2361;49.540;8.390;2024-01-06T12:15:36;8.90;;;5.20;;
4694;SDS011;2361;49.540;8.390;2024-01-06T12:18:02;8.05;;;4.80;;
4694;SDS011;2361;49.540;8.390;2024-01-06T12:20:25;7.82;;;5.30;;
4694;SDS011;2361;49.540;8.390;2024-01-06T12:22:51;7.38;;;5.30;;
4694;SDS011;2361;49.540;8.390;2024-01-06T12:25:14;7.55;;;5.10;;
4694;SDS011;2361;49.540;8.390;2024-01-06T12:27:41;6.93;;;5.10;;
4694;SDS011;2361;49.540;8.390;2024-01-06T12:30:04;7.85;;;5.03;;
4694;SDS011;2361;49.540;8.390;2024-01-06T12:32:37;9.60;;;4.75;;
4694;SDS011;2361;49.540;8.390;2024-01-06T12:34:59;5.97;;;4.93;;
4694;SDS011;2361;49.540;8.390;2024-01-06T12:37:22;8.82;;;5.00;;
4694;SDS011;2361;49.540;8.390;2024-01-06T12:39:45;6.32;;;4.40;;
4694;SDS011;2361;49.540;8.390;2024-01-06T12:42:09;7.30;;;4.90;;
4694;SDS011;2361;49.540;8.390;2024-01-06T12:44:31;5.80;;;4.43;;
4694;SDS011;2361;49.540;8.390;2024-01-06T12:46:54;4.90;;;4.40;;
4694;SDS011;2361;49.540;8.390;2024-01-06T12:49:16;6.55;;;4.55;;
4694;SDS011;2361;49.540;8.390;2024-01-06T12:51:39;6.43;;;4.80;;
4694;SDS011;2361;49.540;8.390;2024-01-06T12:54:01;5.65;;;4.50;;
4694;SDS011;2361;49.540;8.390;2024-01-06T12:56:23;7.20;;;4.50;;
4694;SDS011;2361;49.540;8.390;2024-01-06T12:58:45;6.60;;;4.70;;
4694;SDS011;2361;49.540;8.390;2024-01-06T13:01:07;6.55;;;4.50;;
4694;SDS011;2361;49.540;8.390;2024-01-06T13:03:29;7.10;;;4.25;;
4694;SDS011;2361;49.540;8.390;2024-01-06T13:05:51;6.00;;;4.60;;
4694;SDS011;2361;49.540;8.390;2024-01-06T13:08:13;7.97;;;4.90;;
4694;SDS011;2361;49.540;8.390;2024-01-06T13:10:35;6.70;;;4.68;;
4694;SDS011;2361;49.540;8.390;2024-01-06T13:12:57;8.52;;;5.40;;
4694;SDS011;2361;49.540;8.390;2024-01-06T13:15:20;8.02;;;5.10;;
4694;SDS011;2361;49.540;8.390;2024-01-06T13:17:42;7.20;;;4.35;;
4694;SDS011;2361;49.540;8.390;2024-01-06T13:20:05;6.40;;;4.70;;
4694;SDS011;2361;49.540;8.390;2024-01-06T13:22:29;7.00;;;4.60;;
4694;SDS011;2361;49.540;8.390;2024-01-06T13:24:51;6.50;;;4.90;;
4694;SDS011;2361;49.540;8.390;2024-01-06T13:27:14;6.60;;;4.70;;
4694;SDS011;2361;49.540;8.390;2024-01-06T13:29:36;6.70;;;4.60;;
4694;SDS011;2361;49.540;8.390;2024-01-06T13:31:59;7.22;;;4.97;;
4694;SDS011;2361;49.540;8.390;2024-01-06T13:34:22;8.10;;;4.90;;
4694;SDS011;2361;49.540;8.390;2024-01-06T13:36:44;7.00;;;4.70;;
4694;SDS011;2361;49.540;8.390;2024-01-06T13:39:07;6.23;;;4.30;;
4694;SDS011;2361;49.540;8.390;2024-01-06T13:41:29;7.13;;;4.45;;
4694;SDS011;2361;49.540;8.390;2024-01-06T13:43:51;7.30;;;5.10;;
4694;SDS011;2361;49.540;8.390;2024-01-06T13:46:13;6.10;;;4.70;;
4694;SDS011;2361;49.540;8.390;2024-01-06T13:48:35;6.00;;;4.60;;
4694;SDS011;2361;49.540;8.390;2024-01-06T13:50:57;6.35;;;4.78;;
4694;SDS011;2361;49.540;8.390;2024-01-06T13:53:20;6.20;;;4.85;;
4694;SDS011;2361;49.540;8.390;2024-01-06T13:55:42;6.97;;;4.83;;
4694;SDS011;2361;49.540;8.390;2024-01-06T13:58:05;6.18;;;4.88;;
4694;SDS011;2361;49.540;8.390;2024-01-06T14:00:28;6.03;;;4.80;;
4694;SDS011;2361;49.540;8.390;2024-01-06T14:02:50;7.75;;;4.88;;
4694;SDS011;2361;49.540;8.390;2024-01-06T14:05:13;7.28;;;4.70;;
4694;SDS011;2361;49.540;8.390;2024-01-06T14:07:35;6.68;;;4.95;;
4694;SDS011;2361;49.540;8.390;2024-01-06T14:10:00;8.45;;;5.00;;
4694;SDS011;2361;49.540;8.390;2024-01-06T14:12:24;6.85;;;5.20;;
4694;SDS011;2361;49.540;8.390;2024-01-06T14:14:46;11.27;;;6.90;;
4694;SDS011;2361;49.540;8.390;2024-01-06T14:17:08;10.13;;;6.63;;
4694;SDS011;2361;49.540;8.390;2024-01-06T14:19:30;10.03;;;5.87;;
4694;SDS011;2361;49.540;8.390;2024-01-06T14:21:52;6.95;;;4.95;;
4694;SDS011;2361;49.540;8.390;2024-01-06T14:24:14;7.05;;;4.80;;
4694;SDS011;2361;49.540;8.390;2024-01-06T14:26:36;8.50;;;5.50;;
4694;SDS011;2361;49.540;8.390;2024-01-06T14:29:00;6.97;;;5.00;;
4694;SDS011;2361;49.540;8.390;2024-01-06T14:31:22;8.15;;;4.80;;
4694;SDS011;2361;49.540;8.390;2024-01-06T14:33:44;6.97;;;5.03;;
4694;SDS011;2361;49.540;8.390;2024-01-06T14:36:07;5.45;;;4.30;;
4694;SDS011;2361;49.540;8.390;2024-01-06T14:38:29;6.00;;;4.70;;
4694;SDS011;2361;49.540;8.390;2024-01-06T14:40:51;7.72;;;5.00;;
4694;SDS011;2361;49.540;8.390;2024-01-06T14:43:14;6.38;;;4.72;;
4694;SDS011;2361;49.540;8.390;2024-01-06T14:45:36;7.13;;;4.95;;
4694;SDS011;2361;49.540;8.390;2024-01-06T14:47:59;7.35;;;4.93;;
4694;SDS011;2361;49.540;8.390;2024-01-06T14:50:21;8.18;;;5.88;;